Time;durP1;ratioP1;P1;durP2;ratioP2;P2;SDS_P1;SDS_P2;PMS_P1;PMS_P2;Temp;Humidity;BMP_temperature;BMP_pressure;BME280_temperature;BME280_humidity;BME280_pressure;Samples;Min_cycle;Max_cycle;Signal;HPM_P1;HPM_P2
2021/07/14 00:00:41;;;;;;;;;;;15.10;99.90;;;;;;5050126;28;19967;-62
2021/07/14 00:03:29;;;;;;;;;;;15.10;99.90;;;;;;5055811;28;19933;-62
2021/07/14 00:06:19;;;;;;;;;;;15.10;99.90;;;;;;5053694;28;19942;-62
2021/07/14 00:09:08;;;;;;;;;;;15.10;99.90;;;;;;5060319;28;19931;-62
2021/07/14 00:11:57;;;;;;;;;;;15.10;99.90;;;;;;5054323;28;19925;-62
2021/07/14 00:16:59;;;;;;;;;;;15.10;99.90;;;;;;5064673;28;19933;-62
2021/07/14 00:24:24;;;;;;;;;;;14.90;99.90;;;;;;5064279;28;19936;-62
2021/07/14 00:27:12;;;;;;;;;;;14.90;99.90;;;;;;5060873;28;19924;-62
2021/07/14 00:30:08;;;;;;;;;;;14.90;99.90;;;;;;5056409;28;19964;-62
2021/07/14 00:32:56;;;;;;;;;;;14.90;99.90;;;;;;5059353;28;23717;-62
2021/07/14 00:35:45;;;;;;;;;;;15.00;99.90;;;;;;5048397;28;19971;-62
2021/07/14 00:38:34;;;;;;;;;;;15.00;99.90;;;;;;5049825;28;20257;-62
2021/07/14 00:41:24;;;;;;;;;;;15.00;99.90;;;;;;5050269;28;20431;-62
2021/07/14 00:44:12;;;;;;;;;;;15.00;99.90;;;;;;5049722;28;19947;-61
2021/07/14 00:47:01;;;;;;;;;;;15.10;99.90;;;;;;5027252;28;19931;-63
2021/07/14 00:49:49;;;;;;;;;;;15.00;99.90;;;;;;5028930;28;19932;-61
2021/07/14 00:52:37;;;;;;;;;;;15.10;99.90;;;;;;5028053;28;19979;-62
2021/07/14 00:55:26;;;;;;;;;;;15.00;99.90;;;;;;5016330;28;19925;-62
2021/07/14 00:58:16;;;;;;;;;;;15.00;99.90;;;;;;5028842;28;19929;-62
2021/07/14 01:01:05;;;;;;;;;;;14.90;99.90;;;;;;5029664;28;19974;-62
2021/07/14 01:04:00;;;;;;;;;;;14.90;99.90;;;;;;5047259;28;20002;-63
2021/07/14 01:06:51;;;;;;;;;;;14.90;99.90;;;;;;5048763;28;19979;-62
2021/07/14 01:09:43;;;;;;;;;;;14.90;99.90;;;;;;5049843;28;19924;-62
2021/07/14 01:12:34;;;;;;;;;;;14.90;99.90;;;;;;5051271;28;19932;-61
2021/07/14 01:15:26;;;;;;;;;;;14.90;99.90;;;;;;5044732;28;20975;-62
2021/07/14 01:18:18;;;;;;;;;;;14.80;99.90;;;;;;5049979;28;20062;-62
2021/07/14 01:21:08;;;;;;;;;;;14.80;99.90;;;;;;5052356;28;19967;-61
2021/07/14 01:24:01;;;;;;;;;;;14.80;99.90;;;;;;5050228;28;19960;-62
2021/07/14 01:27:01;;;;;;;;;;;14.80;99.90;;;;;;5049539;28;20014;-62
2021/07/14 01:29:50;;;;;;;;;;;14.70;99.90;;;;;;5049513;28;20265;-61
2021/07/14 01:32:40;;;;;;;;;;;14.80;99.90;;;;;;5047345;28;19967;-63
2021/07/14 01:35:33;;;;;;;;;;;14.80;99.90;;;;;;5029388;28;19929;-62
2021/07/14 01:38:24;;;;;;;;;;;14.70;99.90;;;;;;5021370;28;20000;-62
2021/07/14 01:41:15;;;;;;;;;;;14.70;99.90;;;;;;5022231;28;19931;-62
2021/07/14 01:44:05;;;;;;;;;;;14.70;99.90;;;;;;5016676;28;19926;-62
2021/07/14 01:46:57;;;;;;;;;;;14.70;99.90;;;;;;5013141;28;19934;-62
2021/07/14 01:49:47;;;;;;;;;;;14.70;99.90;;;;;;5014121;28;19925;-62
2021/07/14 01:52:36;;;;;;;;;;;14.70;99.90;;;;;;5009576;28;19935;-61
2021/07/14 01:55:26;;;;;;;;;;;14.70;99.90;;;;;;5016221;28;19925;-62
2021/07/14 01:58:15;;;;;;;;;;;14.80;99.90;;;;;;5020052;28;19972;-61
2021/07/14 02:01:05;;;;;;;;;;;14.80;99.90;;;;;;5013807;28;19965;-62
2021/07/14 02:06:57;;;;;;;;;;;14.80;99.90;;;;;;5019910;28;20971;-62
2021/07/14 02:09:46;;;;;;;;;;;14.80;99.90;;;;;;5017969;28;20273;-62
2021/07/14 02:12:36;;;;;;;;;;;14.80;99.90;;;;;;5018410;28;19925;-62
2021/07/14 02:15:26;;;;;;;;;;;14.80;99.90;;;;;;5008754;28;19925;-61
2021/07/14 02:18:16;;;;;;;;;;;14.80;99.90;;;;;;5037435;28;20276;-61
2021/07/14 02:21:04;;;;;;;;;;;14.80;99.90;;;;;;5034540;28;19926;-61
2021/07/14 02:23:53;;;;;;;;;;;14.80;99.90;;;;;;5036583;28;20015;-62
2021/07/14 02:26:42;;;;;;;;;;;14.80;99.90;;;;;;5053857;28;19940;-63
2021/07/14 02:29:30;;;;;;;;;;;14.80;99.90;;;;;;5050917;28;19925;-62
2021/07/14 02:32:20;;;;;;;;;;;14.90;99.90;;;;;;5054811;28;19925;-63
2021/07/14 02:35:11;;;;;;;;;;;14.80;99.90;;;;;;5075720;28;19925;-62
2021/07/14 02:38:00;;;;;;;;;;;14.80;99.90;;;;;;5075630;28;20259;-62
2021/07/14 02:40:52;;;;;;;;;;;14.80;99.90;;;;;;5071376;28;19992;-64
2021/07/14 02:43:44;;;;;;;;;;;14.80;99.90;;;;;;5070822;28;19933;-63
2021/07/14 02:46:34;;;;;;;;;;;14.80;99.90;;;;;;5059373;28;19929;-62
2021/07/14 02:49:24;;;;;;;;;;;14.80;99.90;;;;;;5049412;28;19925;-62
2021/07/14 02:52:14;;;;;;;;;;;14.80;99.90;;;;;;5052011;28;19980;-62
2021/07/14 02:55:04;;;;;;;;;;;14.90;99.90;;;;;;5044941;28;19936;-61
2021/07/14 02:57:54;;;;;;;;;;;14.90;99.90;;;;;;5040170;28;19981;-62
2021/07/14 03:00:43;;;;;;;;;;;15.00;99.90;;;;;;5040058;28;20380;-61
2021/07/14 03:03:32;;;;;;;;;;;15.00;99.90;;;;;;5041950;28;19939;-62
2021/07/14 03:06:23;;;;;;;;;;;15.00;99.90;;;;;;5034876;28;19925;-62
2021/07/14 03:09:13;;;;;;;;;;;15.00;99.90;;;;;;5035382;28;19941;-62
2021/07/14 03:12:01;;;;;;;;;;;15.00;99.90;;;;;;5035219;28;19925;-62
2021/07/14 03:14:51;;;;;;;;;;;15.00;99.90;;;;;;5031073;28;19925;-61
2021/07/14 03:17:40;;;;;;;;;;;15.10;99.90;;;;;;5033513;28;20022;-62
2021/07/14 03:20:36;;;;;;;;;;;15.10;99.90;;;;;;5044666;28;20484;-62
2021/07/14 03:23:25;;;;;;;;;;;15.10;99.90;;;;;;5033829;28;20011;-62
2021/07/14 03:26:15;;;;;;;;;;;15.10;99.90;;;;;;5033182;28;19926;-64
2021/07/14 03:29:05;;;;;;;;;;;15.20;99.90;;;;;;5033795;28;20340;-62
2021/07/14 03:31:59;;;;;;;;;;;15.10;99.90;;;;;;5025606;28;19925;-62
2021/07/14 03:34:48;;;;;;;;;;;15.20;99.90;;;;;;5034202;28;19929;-61
2021/07/14 03:37:36;;;;;;;;;;;15.20;99.90;;;;;;5025582;28;19940;-62
2021/07/14 03:40:25;;;;;;;;;;;15.20;99.90;;;;;;5033406;28;19951;-62
2021/07/14 03:43:14;;;;;;;;;;;15.20;99.90;;;;;;5031865;28;19925;-64
2021/07/14 03:46:04;;;;;;;;;;;15.20;99.90;;;;;;5019165;28;19925;-63
2021/07/14 03:48:53;;;;;;;;;;;15.20;99.90;;;;;;5052259;28;19955;-64
2021/07/14 03:51:42;;;;;;;;;;;15.30;99.90;;;;;;5052511;28;19932;-63
2021/07/14 03:54:31;;;;;;;;;;;15.30;99.90;;;;;;5052095;28;19964;-61
2021/07/14 03:57:20;;;;;;;;;;;15.40;99.90;;;;;;5052669;28;19932;-62
2021/07/14 04:00:34;;;;;;;;;;;15.40;99.90;;;;;;5032864;28;19935;-61
2021/07/14 04:03:26;;;;;;;;;;;15.40;99.90;;;;;;5030535;28;20303;-62
2021/07/14 04:06:15;;;;;;;;;;;15.40;99.90;;;;;;5026294;28;19933;-62
2021/07/14 04:09:19;;;;;;;;;;;15.40;99.90;;;;;;5031761;28;20015;-62
2021/07/14 04:12:08;;;;;;;;;;;15.50;99.90;;;;;;5030917;28;19932;-61
2021/07/14 04:15:21;;;;;;;;;;;15.50;99.90;;;;;;5025655;28;20388;-61
2021/07/14 04:18:12;;;;;;;;;;;15.60;99.90;;;;;;5048813;28;19928;-61
2021/07/14 04:21:03;;;;;;;;;;;15.60;99.90;;;;;;5052562;28;19924;-61
2021/07/14 04:23:51;;;;;;;;;;;15.60;99.90;;;;;;5048989;28;19925;-61
2021/07/14 04:26:40;;;;;;;;;;;15.60;99.90;;;;;;5061947;28;19971;-61
2021/07/14 04:29:28;;;;;;;;;;;15.60;99.90;;;;;;5063598;28;19957;-63
2021/07/14 04:32:16;;;;;;;;;;;15.70;99.90;;;;;;5045248;28;19925;-61
2021/07/14 04:35:06;;;;;;;;;;;15.70;99.90;;;;;;5053196;28;20003;-61
2021/07/14 04:37:55;;;;;;;;;;;15.70;99.90;;;;;;5037077;28;20042;-61
2021/07/14 04:40:44;;;;;;;;;;;15.70;99.90;;;;;;5039191;28;19924;-62
2021/07/14 04:43:34;;;;;;;;;;;15.60;99.90;;;;;;5039467;28;20289;-62
2021/07/14 04:46:22;;;;;;;;;;;15.60;99.90;;;;;;5026951;28;20381;-64
2021/07/14 04:49:11;;;;;;;;;;;15.60;99.90;;;;;;5032141;28;19929;-62
2021/07/14 04:51:59;;;;;;;;;;;15.60;99.90;;;;;;5030683;28;20003;-61
2021/07/14 04:54:49;;;;;;;;;;;15.60;99.90;;;;;;5032553;28;19925;-64
2021/07/14 04:57:38;;;;;;;;;;;15.60;99.90;;;;;;5030540;28;20019;-61
2021/07/14 05:00:51;;;;;;;;;;;15.60;99.90;;;;;;5025137;28;19931;-62
2021/07/14 05:03:40;;;;;;;;;;;15.60;99.90;;;;;;5028631;28;20012;-61
2021/07/14 05:06:28;;;;;;;;;;;15.60;99.90;;;;;;5028158;28;19925;-64
2021/07/14 05:09:17;;;;;;;;;;;15.60;99.90;;;;;;5016155;28;19932;-61
2021/07/14 05:12:07;;;;;;;;;;;15.50;99.90;;;;;;5032514;28;19925;-61
2021/07/14 05:15:21;;;;;;;;;;;15.60;99.90;;;;;;5024798;28;19925;-63
2021/07/14 05:18:10;;;;;;;;;;;15.50;99.90;;;;;;5027783;28;19929;-61
2021/07/14 05:20:58;;;;;;;;;;;15.60;99.90;;;;;;5029433;28;20048;-62
2021/07/14 05:23:47;;;;;;;;;;;15.60;99.90;;;;;;5031568;28;19925;-61
2021/07/14 05:26:35;;;;;;;;;;;15.70;99.90;;;;;;5031345;28;19929;-62
2021/07/14 05:29:25;;;;;;;;;;;15.70;99.90;;;;;;5030607;28;19932;-61
2021/07/14 05:32:14;;;;;;;;;;;15.60;99.90;;;;;;5029626;28;19925;-61
2021/07/14 05:35:03;;;;;;;;;;;15.70;99.90;;;;;;5056850;28;19925;-62
2021/07/14 05:37:52;;;;;;;;;;;15.70;99.90;;;;;;5056987;28;19925;-63
2021/07/14 05:40:40;;;;;;;;;;;15.60;99.90;;;;;;5058087;28;20258;-62
2021/07/14 05:43:28;;;;;;;;;;;15.60;99.90;;;;;;5057290;28;19925;-61
2021/07/14 05:46:20;;;;;;;;;;;15.60;99.90;;;;;;5040781;28;19925;-61
2021/07/14 05:49:08;;;;;;;;;;;15.60;99.90;;;;;;5035100;28;20369;-62
2021/07/14 05:51:57;;;;;;;;;;;15.70;99.90;;;;;;5055549;28;19931;-62
2021/07/14 05:54:45;;;;;;;;;;;15.60;99.90;;;;;;5046970;28;19931;-62
2021/07/14 05:57:34;;;;;;;;;;;15.60;99.90;;;;;;5055296;28;19925;-61
2021/07/14 06:00:47;;;;;;;;;;;15.60;99.90;;;;;;5048058;28;20055;-61
2021/07/14 06:03:37;;;;;;;;;;;15.60;99.90;;;;;;5032494;28;19925;-62
2021/07/14 06:06:26;;;;;;;;;;;15.60;99.90;;;;;;5035499;28;19925;-64
2021/07/14 06:09:14;;;;;;;;;;;15.70;99.90;;;;;;5034709;28;19925;-61
2021/07/14 06:12:03;;;;;;;;;;;15.70;99.90;;;;;;5036587;28;19931;-62
2021/07/14 06:14:51;;;;;;;;;;;15.70;99.90;;;;;;5037284;28;19931;-62
2021/07/14 06:17:40;;;;;;;;;;;15.70;99.90;;;;;;5025841;28;19924;-61
2021/07/14 06:20:53;;;;;;;;;;;15.70;99.90;;;;;;5033729;28;19959;-62
2021/07/14 06:23:43;;;;;;;;;;;15.70;99.90;;;;;;5025656;28;19932;-62
2021/07/14 06:26:31;;;;;;;;;;;15.80;99.90;;;;;;5034634;28;19925;-62
2021/07/14 06:29:20;;;;;;;;;;;15.80;99.90;;;;;;5023598;28;20015;-61
2021/07/14 06:32:08;;;;;;;;;;;15.80;99.90;;;;;;5032577;28;20399;-62
2021/07/14 06:34:57;;;;;;;;;;;15.80;99.90;;;;;;5048547;28;20589;-62
2021/07/14 06:37:47;;;;;;;;;;;15.90;99.90;;;;;;5046078;28;19925;-62
2021/07/14 06:40:37;;;;;;;;;;;15.90;99.90;;;;;;5053925;28;20376;-63
2021/07/14 06:43:41;;;;;;;;;;;16.00;99.90;;;;;;5043677;28;20314;-63
2021/07/14 06:46:29;;;;;;;;;;;15.90;99.90;;;;;;5049268;28;19935;-65
2021/07/14 06:49:18;;;;;;;;;;;15.80;99.90;;;;;;5054601;28;19967;-62
2021/07/14 06:52:07;;;;;;;;;;;15.80;99.90;;;;;;5056657;28;19992;-62
2021/07/14 06:55:00;;;;;;;;;;;15.80;99.90;;;;;;5057606;28;19978;-62
2021/07/14 06:57:53;;;;;;;;;;;15.90;99.90;;;;;;5050942;28;20365;-61
2021/07/14 07:00:42;;;;;;;;;;;16.00;99.90;;;;;;5058016;28;19924;-61
2021/07/14 07:03:31;;;;;;;;;;;15.90;99.90;;;;;;5067962;28;19924;-62
2021/07/14 07:06:19;;;;;;;;;;;15.90;99.90;;;;;;5065656;28;19925;-62
2021/07/14 07:09:08;;;;;;;;;;;15.90;99.90;;;;;;5054035;28;19966;-61
2021/07/14 07:11:57;;;;;;;;;;;16.10;99.90;;;;;;5049822;28;20277;-62
2021/07/14 07:14:47;;;;;;;;;;;16.50;99.90;;;;;;5055501;28;20007;-64
2021/07/14 07:17:35;;;;;;;;;;;16.80;99.90;;;;;;5044334;28;19936;-62
2021/07/14 07:20:24;;;;;;;;;;;17.50;99.90;;;;;;5056265;28;19932;-61
2021/07/14 07:23:37;;;;;;;;;;;18.00;99.90;;;;;;5082235;28;19931;-62
2021/07/14 07:26:26;;;;;;;;;;;18.20;99.90;;;;;;5039759;28;19932;-61
2021/07/14 07:29:30;;;;;;;;;;;18.50;99.90;;;;;;5051882;28;20079;-62
2021/07/14 07:32:20;;;;;;;;;;;18.60;99.90;;;;;;5049735;28;19939;-62
2021/07/14 07:35:10;;;;;;;;;;;18.30;99.90;;;;;;5052231;28;20003;-61
2021/07/14 07:37:59;;;;;;;;;;;18.00;99.90;;;;;;5040719;28;19929;-62
2021/07/14 07:40:51;;;;;;;;;;;17.60;99.90;;;;;;5029390;28;19925;-62
2021/07/14 07:43:39;;;;;;;;;;;17.60;99.90;;;;;;5035144;28;19929;-61
2021/07/14 07:46:27;;;;;;;;;;;17.40;99.90;;;;;;5024116;28;19928;-62
2021/07/14 07:49:17;;;;;;;;;;;17.20;99.90;;;;;;5032580;28;19933;-62
2021/07/14 07:52:06;;;;;;;;;;;17.40;99.90;;;;;;5034529;28;20281;-62
2021/07/14 07:54:55;;;;;;;;;;;18.60;99.90;;;;;;5032576;28;20407;-62
2021/07/14 08:00:56;;;;;;;;;;;19.00;99.90;;;;;;5024172;28;20626;-62
2021/07/14 08:04:11;;;;;;;;;;;18.70;99.90;;;;;;5033360;28;19925;-61
2021/07/14 08:07:01;;;;;;;;;;;18.30;99.90;;;;;;5031030;28;19986;-62
2021/07/14 08:09:49;;;;;;;;;;;18.30;99.90;;;;;;5034109;28;20368;-61
2021/07/14 08:12:38;;;;;;;;;;;19.20;99.90;;;;;;5035508;28;19925;-62
2021/07/14 08:15:26;;;;;;;;;;;19.90;99.90;;;;;;5026286;28;19925;-62
2021/07/14 08:18:15;;;;;;;;;;;20.00;99.90;;;;;;5029014;28;19961;-62
2021/07/14 08:21:04;;;;;;;;;;;20.10;99.90;;;;;;5035462;28;19980;-62
2021/07/14 08:23:54;;;;;;;;;;;21.30;99.90;;;;;;5033323;28;20529;-62
2021/07/14 08:26:42;;;;;;;;;;;24.40;99.90;;;;;;5031843;28;19932;-61
2021/07/14 08:29:47;;;;;;;;;;;26.40;98.30;;;;;;5030819;28;19932;-62
2021/07/14 08:32:35;;;;;;;;;;;24.70;98.80;;;;;;5033381;28;20364;-61
2021/07/14 08:35:26;;;;;;;;;;;24.20;99.90;;;;;;5033059;28;20574;-62
2021/07/14 08:38:14;;;;;;;;;;;23.50;99.90;;;;;;5033929;28;20284;-61
2021/07/14 08:41:04;;;;;;;;;;;23.00;99.90;;;;;;5036740;28;19933;-62
2021/07/14 08:43:55;;;;;;;;;;;21.90;99.90;;;;;;5029669;28;22520;-62
2021/07/14 08:46:43;;;;;;;;;;;20.80;99.90;;;;;;5026185;28;19933;-62
2021/07/14 08:49:31;;;;;;;;;;;20.30;99.90;;;;;;5031371;28;19943;-61
2021/07/14 08:52:20;;;;;;;;;;;19.60;99.90;;;;;;5032654;28;19925;-62
2021/07/14 08:55:09;;;;;;;;;;;19.40;99.90;;;;;;5035272;28;19988;-62
2021/07/14 08:58:22;;;;;;;;;;;19.20;99.90;;;;;;5026562;28;20377;-62
2021/07/14 09:01:12;;;;;;;;;;;19.20;99.90;;;;;;5000506;28;20010;-61
2021/07/14 09:04:03;;;;;;;;;;;19.40;99.90;;;;;;5026055;28;19925;-64
2021/07/14 09:06:51;;;;;;;;;;;20.80;99.90;;;;;;5030324;28;20383;-61
2021/07/14 09:09:40;;;;;;;;;;;21.10;99.90;;;;;;5032341;28;19933;-61
2021/07/14 09:12:35;;;;;;;;;;;19.90;99.90;;;;;;5032140;28;19929;-62
2021/07/14 09:15:49;;;;;;;;;;;19.70;99.90;;;;;;5016941;28;20280;-61
2021/07/14 09:18:39;;;;;;;;;;;19.30;99.90;;;;;;5024611;28;20012;-62
2021/07/14 09:21:39;;;;;;;;;;;19.00;99.90;;;;;;5032996;28;19929;-61
2021/07/14 09:24:29;;;;;;;;;;;18.90;99.90;;;;;;5033605;28;20303;-62
2021/07/14 09:27:18;;;;;;;;;;;18.90;99.90;;;;;;5042601;28;19925;-62
2021/07/14 09:30:08;;;;;;;;;;;18.70;99.90;;;;;;5038164;28;19933;-62
2021/07/14 09:32:57;;;;;;;;;;;18.50;99.90;;;;;;5035058;28;19932;-62
2021/07/14 09:35:48;;;;;;;;;;;18.30;99.90;;;;;;5025972;28;19929;-62
2021/07/14 09:38:39;;;;;;;;;;;18.20;99.90;;;;;;5034005;28;19933;-61
2021/07/14 09:41:35;;;;;;;;;;;18.10;99.90;;;;;;5028196;28;19925;-62
2021/07/14 09:44:23;;;;;;;;;;;18.00;99.90;;;;;;5034136;28;20010;-63
2021/07/14 09:47:14;;;;;;;;;;;17.90;99.90;;;;;;5028594;28;19925;-66
2021/07/14 09:50:02;;;;;;;;;;;18.10;99.90;;;;;;5041609;28;19979;-61
2021/07/14 09:53:00;;;;;;;;;;;18.20;99.90;;;;;;5029359;28;20377;-62
2021/07/14 09:55:50;;;;;;;;;;;18.30;99.90;;;;;;5032485;28;19937;-62
2021/07/14 09:58:40;;;;;;;;;;;18.30;99.90;;;;;;5030720;28;19925;-62
2021/07/14 10:01:54;;;;;;;;;;;18.40;99.90;;;;;;5024940;28;20418;-63
2021/07/14 10:04:44;;;;;;;;;;;18.50;99.90;;;;;;5029352;28;19936;-63
2021/07/14 10:07:33;;;;;;;;;;;18.60;99.90;;;;;;5027205;28;19929;-63
2021/07/14 10:10:23;;;;;;;;;;;18.70;99.90;;;;;;5029591;28;19952;-63
2021/07/14 10:13:12;;;;;;;;;;;18.60;99.90;;;;;;5031277;28;19929;-61
2021/07/14 10:16:02;;;;;;;;;;;18.70;99.90;;;;;;5023575;28;19932;-63
2021/07/14 10:18:58;;;;;;;;;;;18.80;99.90;;;;;;5034567;28;19940;-62
2021/07/14 10:21:48;;;;;;;;;;;18.80;99.90;;;;;;5035278;28;20419;-62
2021/07/14 10:24:38;;;;;;;;;;;18.80;99.90;;;;;;5018010;28;19925;-62
2021/07/14 10:27:27;;;;;;;;;;;19.00;99.90;;;;;;5035443;28;20410;-63
2021/07/14 10:30:17;;;;;;;;;;;19.00;99.90;;;;;;5026249;28;19929;-65
2021/07/14 10:33:06;;;;;;;;;;;19.10;99.90;;;;;;5032282;28;19984;-62
2021/07/14 10:35:57;;;;;;;;;;;19.30;99.90;;;;;;5033001;28;19933;-62
2021/07/14 10:38:49;;;;;;;;;;;19.50;99.90;;;;;;5034210;28;19964;-62
2021/07/14 10:41:37;;;;;;;;;;;19.80;99.90;;;;;;5031111;28;19929;-63
2021/07/14 10:44:27;;;;;;;;;;;19.70;99.90;;;;;;5023099;28;19929;-62
2021/07/14 10:47:16;;;;;;;;;;;20.30;99.90;;;;;;5028225;28;19925;-62
2021/07/14 10:50:05;;;;;;;;;;;20.80;99.90;;;;;;5031116;28;20443;-67
2021/07/14 10:52:53;;;;;;;;;;;20.50;99.90;;;;;;5028013;28;19932;-65
2021/07/14 10:55:42;;;;;;;;;;;20.60;99.90;;;;;;5034145;28;19966;-62
2021/07/14 10:58:31;;;;;;;;;;;21.30;99.90;;;;;;5019621;28;19962;-63
2021/07/14 11:01:38;;;;;;;;;;;21.60;99.90;;;;;;5026703;28;19951;-62
2021/07/14 11:04:45;;;;;;;;;;;22.00;99.90;;;;;;5036399;28;19943;-62
2021/07/14 11:07:43;;;;;;;;;;;22.70;99.90;;;;;;5033694;28;19925;-63
2021/07/14 11:10:36;;;;;;;;;;;22.80;99.90;;;;;;5036519;28;19924;-62
2021/07/14 11:13:27;;;;;;;;;;;22.70;99.90;;;;;;5038089;28;20435;-64
2021/07/14 11:16:29;;;;;;;;;;;22.20;99.90;;;;;;5028570;28;19933;-62
2021/07/14 11:19:18;;;;;;;;;;;22.10;99.90;;;;;;5031134;28;19979;-62
2021/07/14 11:22:07;;;;;;;;;;;21.30;99.90;;;;;;5033012;28;19925;-63
2021/07/14 11:25:00;;;;;;;;;;;20.90;99.90;;;;;;5030433;28;19940;-62
2021/07/14 11:27:50;;;;;;;;;;;20.30;99.90;;;;;;5033003;28;20352;-66
2021/07/14 11:30:40;;;;;;;;;;;20.20;99.90;;;;;;5019530;28;20295;-63
2021/07/14 11:33:52;;;;;;;;;;;20.30;99.90;;;;;;5033430;28;19940;-62
2021/07/14 11:36:41;;;;;;;;;;;20.50;99.90;;;;;;5049068;28;19925;-62
2021/07/14 11:39:30;;;;;;;;;;;20.80;99.90;;;;;;5044591;28;19935;-63
2021/07/14 11:42:20;;;;;;;;;;;20.80;99.90;;;;;;5051991;28;19932;-63
2021/07/14 11:45:09;;;;;;;;;;;20.50;99.90;;;;;;5050966;28;19929;-64
2021/07/14 11:47:59;;;;;;;;;;;20.90;99.90;;;;;;5046510;28;19924;-63
2021/07/14 11:50:54;;;;;;;;;;;20.90;99.90;;;;;;5042798;28;19924;-63
2021/07/14 11:53:43;;;;;;;;;;;21.30;99.90;;;;;;5045848;28;20000;-66
2021/07/14 11:56:41;;;;;;;;;;;20.90;99.90;;;;;;5043493;28;19925;-63
2021/07/14 12:02:58;;;;;;;;;;;20.50;99.90;;;;;;5052283;28;19948;-63
2021/07/14 12:05:46;;;;;;;;;;;20.20;99.90;;;;;;5061487;28;20317;-65
2021/07/14 12:08:37;;;;;;;;;;;20.20;99.90;;;;;;5053217;28;19990;-63
2021/07/14 12:11:25;;;;;;;;;;;20.40;99.90;;;;;;5037296;28;19933;-63
2021/07/14 12:14:18;;;;;;;;;;;20.50;99.90;;;;;;5048397;28;19933;-63
2021/07/14 12:17:11;;;;;;;;;;;20.90;99.90;;;;;;5043365;28;19981;-64
2021/07/14 12:20:24;;;;;;;;;;;21.30;99.90;;;;;;5038379;28;19946;-64
2021/07/14 12:23:37;;;;;;;;;;;21.30;99.90;;;;;;5052469;28;19928;-64
2021/07/14 12:26:25;;;;;;;;;;;21.70;99.90;;;;;;5049990;28;20000;-64
2021/07/14 12:29:23;;;;;;;;;;;21.70;99.90;;;;;;5054451;28;19925;-61
2021/07/14 12:32:13;;;;;;;;;;;21.40;99.90;;;;;;5015965;28;20455;-63
2021/07/14 12:35:03;;;;;;;;;;;21.50;99.90;;;;;;5016594;28;20258;-62
2021/07/14 12:37:53;;;;;;;;;;;21.80;99.90;;;;;;5013769;28;20359;-63
2021/07/14 12:40:42;;;;;;;;;;;22.00;99.90;;;;;;5002303;28;19932;-63
2021/07/14 12:43:31;;;;;;;;;;;22.10;99.90;;;;;;5021592;28;19933;-62
2021/07/14 12:46:24;;;;;;;;;;;21.90;99.90;;;;;;4999425;28;19925;-62
2021/07/14 12:49:15;;;;;;;;;;;21.80;99.90;;;;;;5010751;28;19932;-62
2021/07/14 12:52:05;;;;;;;;;;;21.90;99.90;;;;;;5013251;28;19964;-62
2021/07/14 12:54:55;;;;;;;;;;;22.00;99.90;;;;;;4998623;28;19932;-62
2021/07/14 12:57:43;;;;;;;;;;;22.20;99.90;;;;;;5012461;28;20063;-62
2021/07/14 13:00:56;;;;;;;;;;;21.80;99.90;;;;;;4990936;28;20036;-64
2021/07/14 13:03:45;;;;;;;;;;;21.30;99.90;;;;;;5018413;28;19925;-61
2021/07/14 13:06:35;;;;;;;;;;;20.70;99.90;;;;;;5032461;28;20527;-62
2021/07/14 13:09:24;;;;;;;;;;;20.30;99.90;;;;;;5022507;28;19925;-62
2021/07/14 13:15:29;;;;;;;;;;;19.90;99.90;;;;;;5022915;28;19941;-62
2021/07/14 13:18:17;;;;;;;;;;;19.80;99.90;;;;;;5034651;28;19936;-62
2021/07/14 13:21:06;;;;;;;;;;;19.80;99.90;;;;;;5036126;28;19925;-65
2021/07/14 13:24:02;;;;;;;;;;;19.90;99.90;;;;;;5030058;28;19940;-62
2021/07/14 13:26:56;;;;;;;;;;;19.90;99.90;;;;;;5033848;28;19926;-62
2021/07/14 13:29:44;;;;;;;;;;;19.90;99.90;;;;;;5029552;28;19932;-62
2021/07/14 13:32:33;;;;;;;;;;;20.00;99.90;;;;;;5029893;28;20016;-62
2021/07/14 13:35:22;;;;;;;;;;;20.00;99.90;;;;;;5041404;28;19925;-65
2021/07/14 13:38:44;;;;;;;;;;;20.10;99.90;;;;;;5052521;28;19929;-62
2021/07/14 13:41:35;;;;;;;;;;;20.10;99.90;;;;;;5042734;28;19928;-61
2021/07/14 13:44:25;;;;;;;;;;;20.30;99.90;;;;;;5051957;28;19948;-61
2021/07/14 13:47:18;;;;;;;;;;;20.40;99.90;;;;;;5035507;28;20391;-62
2021/07/14 13:50:08;;;;;;;;;;;20.70;99.90;;;;;;5065869;28;19925;-63
2021/07/14 13:53:01;;;;;;;;;;;20.70;99.90;;;;;;5052169;28;19940;-63
2021/07/14 13:55:59;;;;;;;;;;;21.00;99.90;;;;;;5049771;28;20142;-63
2021/07/14 13:58:55;;;;;;;;;;;20.80;99.90;;;;;;5064438;28;19928;-64
2021/07/14 14:01:52;;;;;;;;;;;20.80;99.90;;;;;;5044448;28;19947;-63
2021/07/14 14:04:49;;;;;;;;;;;21.10;99.90;;;;;;5050168;28;19925;-62
2021/07/14 14:07:41;;;;;;;;;;;21.40;99.90;;;;;;5045044;28;20435;-62
2021/07/14 14:10:29;;;;;;;;;;;21.60;99.90;;;;;;5046286;28;20396;-62
2021/07/14 14:13:30;;;;;;;;;;;21.40;99.90;;;;;;5053784;28;19929;-64
2021/07/14 14:16:20;;;;;;;;;;;21.50;99.90;;;;;;5044056;28;19924;-64
2021/07/14 14:19:09;;;;;;;;;;;21.50;99.90;;;;;;5051257;28;19936;-63
2021/07/14 14:21:58;;;;;;;;;;;21.90;99.90;;;;;;5044381;28;20311;-63
2021/07/14 14:24:48;;;;;;;;;;;21.90;99.90;;;;;;5039620;28;19964;-63
2021/07/14 14:27:47;;;;;;;;;;;22.20;99.90;;;;;;5046871;28;20023;-62
2021/07/14 14:30:36;;;;;;;;;;;22.40;99.90;;;;;;5044970;28;19925;-62
2021/07/14 14:33:27;;;;;;;;;;;22.40;99.90;;;;;;5042602;28;19925;-62
2021/07/14 14:36:15;;;;;;;;;;;22.40;99.90;;;;;;5025517;28;19932;-62
2021/07/14 14:39:04;;;;;;;;;;;22.50;99.90;;;;;;5041952;28;19929;-63
2021/07/14 14:41:52;;;;;;;;;;;22.20;99.90;;;;;;5033402;28;19987;-62
2021/07/14 14:44:42;;;;;;;;;;;21.80;99.90;;;;;;5036359;28;20012;-63
2021/07/14 14:47:30;;;;;;;;;;;21.40;99.90;;;;;;5045536;28;19925;-63
2021/07/14 14:50:20;;;;;;;;;;;20.70;99.90;;;;;;5047113;28;19944;-63
2021/07/14 14:53:09;;;;;;;;;;;20.50;99.90;;;;;;5042001;28;19933;-64
2021/07/14 14:55:57;;;;;;;;;;;20.50;99.90;;;;;;5041333;28;19929;-63
2021/07/14 15:01:58;;;;;;;;;;;20.70;99.90;;;;;;5017904;28;19929;-62
2021/07/14 15:04:51;;;;;;;;;;;20.90;99.90;;;;;;5023908;28;19925;-62
2021/07/14 15:10:56;;;;;;;;;;;20.90;99.90;;;;;;5031211;28;19925;-63
2021/07/14 15:13:44;;;;;;;;;;;20.80;99.90;;;;;;5036696;28;20434;-62
2021/07/14 15:16:32;;;;;;;;;;;20.70;99.90;;;;;;5033152;28;19935;-63
2021/07/14 15:19:21;;;;;;;;;;;20.70;99.90;;;;;;5037702;28;20011;-64
2021/07/14 15:22:12;;;;;;;;;;;20.70;99.90;;;;;;5043561;28;19929;-63
2021/07/14 15:25:09;;;;;;;;;;;20.30;99.90;;;;;;5026738;28;19929;-62
2021/07/14 15:31:09;;;;;;;;;;;20.40;99.90;;;;;;5033005;28;20342;-64
2021/07/14 15:33:59;;;;;;;;;;;20.30;99.90;;;;;;5034750;28;19924;-63
2021/07/14 15:36:47;;;;;;;;;;;20.20;99.90;;;;;;5060812;28;20016;-64
2021/07/14 15:39:36;;;;;;;;;;;20.20;99.90;;;;;;5067596;28;19924;-63
2021/07/14 15:42:25;;;;;;;;;;;20.20;99.90;;;;;;5053814;28;20411;-65
2021/07/14 15:45:14;;;;;;;;;;;20.40;99.90;;;;;;5025900;28;19947;-63
2021/07/14 15:48:02;;;;;;;;;;;20.60;99.90;;;;;;5046465;28;20458;-64
2021/07/14 15:50:51;;;;;;;;;;;20.60;99.90;;;;;;5038979;28;19972;-64
2021/07/14 15:53:39;;;;;;;;;;;20.80;99.90;;;;;;5050301;28;20281;-64
2021/07/14 15:56:28;;;;;;;;;;;20.90;99.90;;;;;;5047891;28;19925;-67
2021/07/14 15:59:18;;;;;;;;;;;20.90;99.90;;;;;;5049273;28;19979;-63
2021/07/14 16:02:06;;;;;;;;;;;20.80;99.90;;;;;;5046745;28;19931;-64
2021/07/14 16:04:55;;;;;;;;;;;20.90;99.90;;;;;;5042356;28;19925;-67
2021/07/14 16:07:43;;;;;;;;;;;20.90;99.90;;;;;;5045445;28;19932;-62
2021/07/14 16:10:32;;;;;;;;;;;20.80;99.90;;;;;;5052191;28;20007;-63
2021/07/14 16:13:20;;;;;;;;;;;20.70;99.90;;;;;;5052643;28;19932;-63
2021/07/14 16:16:10;;;;;;;;;;;20.60;99.90;;;;;;5043532;28;20334;-65
2021/07/14 16:18:59;;;;;;;;;;;20.40;99.90;;;;;;5041438;28;19924;-64
2021/07/14 16:21:48;;;;;;;;;;;20.50;99.90;;;;;;5052608;28;19971;-65
2021/07/14 16:24:37;;;;;;;;;;;20.60;99.90;;;;;;5047241;28;20329;-63
2021/07/14 16:27:26;;;;;;;;;;;20.60;99.90;;;;;;5048439;28;19924;-65
2021/07/14 16:30:15;;;;;;;;;;;20.60;99.90;;;;;;5038156;28;19925;-63
2021/07/14 16:33:07;;;;;;;;;;;20.70;99.90;;;;;;5052480;28;20426;-61
2021/07/14 16:35:55;;;;;;;;;;;20.70;99.90;;;;;;5062857;28;19932;-63
2021/07/14 16:39:08;;;;;;;;;;;20.60;99.90;;;;;;5052881;28;19944;-62
2021/07/14 16:41:56;;;;;;;;;;;20.60;99.90;;;;;;5043343;28;19925;-62
2021/07/14 16:44:44;;;;;;;;;;;20.70;99.90;;;;;;5058408;28;19932;-64
2021/07/14 16:47:33;;;;;;;;;;;20.80;99.90;;;;;;5053134;28;20395;-62
2021/07/14 16:50:23;;;;;;;;;;;20.90;99.90;;;;;;5040934;28;20407;-62
2021/07/14 16:53:11;;;;;;;;;;;20.90;99.90;;;;;;5038473;28;19925;-61
2021/07/14 16:56:00;;;;;;;;;;;20.70;99.90;;;;;;5025733;28;20774;-62
2021/07/14 16:58:48;;;;;;;;;;;20.70;99.90;;;;;;5040465;28;19933;-62
2021/07/14 17:01:36;;;;;;;;;;;20.80;99.90;;;;;;5039394;28;19955;-63
2021/07/14 17:04:25;;;;;;;;;;;20.80;99.90;;;;;;5043537;28;20299;-63